sensor_id;sensor_type;location;lat;lon;timestamp;P1;durP1;ratioP1;P2;durP2;ratioP2
73136;SDS011;62977;45.636;11.750;2022-11-20T00:00:48;29.17;;;12.93;;
73136;SDS011;62977;45.636;11.750;2022-11-20T00:03:14;27.15;;;12.07;;
73136;SDS011;62977;45.636;11.750;2022-11-20T00:05:40;25.40;;;11.57;;
73136;SDS011;62977;45.636;11.750;2022-11-20T00:08:06;20.93;;;10.57;;
73136;SDS011;62977;45.636;11.750;2022-11-20T00:10:31;26.92;;;13.48;;
73136;SDS011;62977;45.636;11.750;2022-11-20T00:12:58;22.57;;;10.50;;
73136;SDS011;62977;45.636;11.750;2022-11-20T00:15:23;20.75;;;10.32;;
73136;SDS011;62977;45.636;11.750;2022-11-20T00:17:49;22.88;;;10.45;;
73136;SDS011;62977;45.636;11.750;2022-11-20T00:20:15;19.80;;;9.97;;
73136;SDS011;62977;45.636;11.750;2022-11-20T00:22:41;21.75;;;9.73;;
73136;SDS011;62977;45.636;11.750;2022-11-20T00:25:06;19.70;;;9.20;;
73136;SDS011;62977;45.636;11.750;2022-11-20T00:27:32;21.23;;;10.20;;
73136;SDS011;62977;45.636;11.750;2022-11-20T00:29:58;19.50;;;9.43;;
73136;SDS011;62977;45.636;11.750;2022-11-20T00:32:24;18.77;;;9.90;;
73136;SDS011;62977;45.636;11.750;2022-11-20T00:34:49;22.70;;;9.38;;
73136;SDS011;62977;45.636;11.750;2022-11-20T00:37:15;15.97;;;7.73;;
73136;SDS011;62977;45.636;11.750;2022-11-20T00:39:41;23.87;;;9.73;;
73136;SDS011;62977;45.636;11.750;2022-11-20T00:42:06;20.77;;;8.15;;
73136;SDS011;62977;45.636;11.750;2022-11-20T00:44:32;21.37;;;9.27;;
73136;SDS011;62977;45.636;11.750;2022-11-20T00:46:58;17.13;;;8.48;;
73136;SDS011;62977;45.636;11.750;2022-11-20T00:49:23;18.90;;;8.53;;
73136;SDS011;62977;45.636;11.750;2022-11-20T00:51:49;17.70;;;9.07;;
73136;SDS011;62977;45.636;11.750;2022-11-20T00:54:14;18.17;;;8.45;;
73136;SDS011;62977;45.636;11.750;2022-11-20T00:56:40;17.10;;;8.87;;
73136;SDS011;62977;45.636;11.750;2022-11-20T00:59:06;18.67;;;8.52;;
73136;SDS011;62977;45.636;11.750;2022-11-20T01:01:33;20.20;;;8.95;;
73136;SDS011;62977;45.636;11.750;2022-11-20T01:04:00;18.23;;;9.30;;
73136;SDS011;62977;45.636;11.750;2022-11-20T01:06:30;21.40;;;10.38;;
73136;SDS011;62977;45.636;11.750;2022-11-20T01:08:59;24.77;;;10.25;;
73136;SDS011;62977;45.636;11.750;2022-11-20T01:11:27;24.37;;;11.57;;
73136;SDS011;62977;45.636;11.750;2022-11-20T01:13:55;21.70;;;10.27;;
73136;SDS011;62977;45.636;11.750;2022-11-20T01:18:50;32.17;;;15.77;;
73136;SDS011;62977;45.636;11.750;2022-11-20T01:21:22;21.83;;;10.27;;
73136;SDS011;62977;45.636;11.750;2022-11-20T01:23:50;17.23;;;8.67;;
73136;SDS011;62977;45.636;11.750;2022-11-20T01:26:21;16.67;;;7.80;;
73136;SDS011;62977;45.636;11.750;2022-11-20T01:28:51;13.93;;;7.78;;
73136;SDS011;62977;45.636;11.750;2022-11-20T01:31:19;15.20;;;7.38;;
73136;SDS011;62977;45.636;11.750;2022-11-20T01:33:47;14.23;;;7.95;;
73136;SDS011;62977;45.636;11.750;2022-11-20T01:36:15;18.67;;;7.33;;
73136;SDS011;62977;45.636;11.750;2022-11-20T01:38:43;17.10;;;8.23;;
73136;SDS011;62977;45.636;11.750;2022-11-20T01:41:10;14.32;;;7.53;;
73136;SDS011;62977;45.636;11.750;2022-11-20T01:44:02;17.25;;;7.80;;
73136;SDS011;62977;45.636;11.750;2022-11-20T01:46:29;17.08;;;8.30;;
73136;SDS011;62977;45.636;11.750;2022-11-20T01:49:16;13.50;;;7.30;;
73136;SDS011;62977;45.636;11.750;2022-11-20T01:51:48;13.80;;;7.68;;
73136;SDS011;62977;45.636;11.750;2022-11-20T01:54:19;14.35;;;7.70;;
73136;SDS011;62977;45.636;11.750;2022-11-20T01:56:54;15.02;;;7.85;;
73136;SDS011;62977;45.636;11.750;2022-11-20T01:59:21;15.80;;;8.00;;
73136;SDS011;62977;45.636;11.750;2022-11-20T02:01:49;17.27;;;8.27;;
73136;SDS011;62977;45.636;11.750;2022-11-20T02:04:15;17.33;;;8.38;;
73136;SDS011;62977;45.636;11.750;2022-11-20T02:06:46;17.92;;;8.43;;
73136;SDS011;62977;45.636;11.750;2022-11-20T02:09:16;15.30;;;7.90;;
73136;SDS011;62977;45.636;11.750;2022-11-20T02:11:41;16.90;;;8.47;;
73136;SDS011;62977;45.636;11.750;2022-11-20T02:14:07;16.17;;;8.77;;
73136;SDS011;62977;45.636;11.750;2022-11-20T02:16:36;18.77;;;9.10;;
73136;SDS011;62977;45.636;11.750;2022-11-20T02:19:06;15.65;;;8.63;;
73136;SDS011;62977;45.636;11.750;2022-11-20T02:21:43;16.50;;;8.60;;
73136;SDS011;62977;45.636;11.750;2022-11-20T02:24:14;18.33;;;8.45;;
73136;SDS011;62977;45.636;11.750;2022-11-20T02:26:57;13.65;;;7.63;;
73136;SDS011;62977;45.636;11.750;2022-11-20T02:29:41;15.87;;;8.20;;
73136;SDS011;62977;45.636;11.750;2022-11-20T02:32:17;18.17;;;8.38;;
73136;SDS011;62977;45.636;11.750;2022-11-20T02:34:50;14.98;;;8.05;;
73136;SDS011;62977;45.636;11.750;2022-11-20T02:37:16;14.57;;;7.40;;
73136;SDS011;62977;45.636;11.750;2022-11-20T02:39:44;15.77;;;7.07;;
73136;SDS011;62977;45.636;11.750;2022-11-20T02:42:12;14.73;;;8.23;;
73136;SDS011;62977;45.636;11.750;2022-11-20T02:44:38;14.15;;;7.75;;
73136;SDS011;62977;45.636;11.750;2022-11-20T02:47:04;15.35;;;7.93;;
73136;SDS011;62977;45.636;11.750;2022-11-20T02:49:29;14.27;;;6.87;;
73136;SDS011;62977;45.636;11.750;2022-11-20T02:51:55;13.15;;;7.50;;
73136;SDS011;62977;45.636;11.750;2022-11-20T02:54:21;16.17;;;8.20;;
73136;SDS011;62977;45.636;11.750;2022-11-20T02:56:46;14.70;;;7.55;;
73136;SDS011;62977;45.636;11.750;2022-11-20T02:59:12;15.50;;;7.80;;
73136;SDS011;62977;45.636;11.750;2022-11-20T03:01:38;15.83;;;8.20;;
73136;SDS011;62977;45.636;11.750;2022-11-20T03:04:03;16.80;;;7.72;;
73136;SDS011;62977;45.636;11.750;2022-11-20T03:06:29;14.15;;;7.22;;
73136;SDS011;62977;45.636;11.750;2022-11-20T03:08:55;13.20;;;7.03;;
73136;SDS011;62977;45.636;11.750;2022-11-20T03:11:21;18.25;;;10.23;;
73136;SDS011;62977;45.636;11.750;2022-11-20T03:13:46;15.80;;;7.77;;
73136;SDS011;62977;45.636;11.750;2022-11-20T03:16:13;13.47;;;7.23;;
73136;SDS011;62977;45.636;11.750;2022-11-20T03:18:41;12.90;;;6.45;;
73136;SDS011;62977;45.636;11.750;2022-11-20T03:21:08;12.70;;;6.45;;
73136;SDS011;62977;45.636;11.750;2022-11-20T03:23:35;14.63;;;6.72;;
73136;SDS011;62977;45.636;11.750;2022-11-20T03:26:18;15.55;;;6.82;;
73136;SDS011;62977;45.636;11.750;2022-11-20T03:28:52;13.27;;;6.33;;
73136;SDS011;62977;45.636;11.750;2022-11-20T03:31:24;11.95;;;6.18;;
73136;SDS011;62977;45.636;11.750;2022-11-20T03:33:52;11.93;;;6.15;;
73136;SDS011;62977;45.636;11.750;2022-11-20T03:36:19;14.63;;;5.88;;
73136;SDS011;62977;45.636;11.750;2022-11-20T03:38:46;13.02;;;6.10;;
73136;SDS011;62977;45.636;11.750;2022-11-20T03:41:14;13.57;;;5.80;;
73136;SDS011;62977;45.636;11.750;2022-11-20T03:43:48;14.52;;;5.80;;
73136;SDS011;62977;45.636;11.750;2022-11-20T03:46:14;13.50;;;6.32;;
73136;SDS011;62977;45.636;11.750;2022-11-20T03:48:40;12.47;;;5.93;;
73136;SDS011;62977;45.636;11.750;2022-11-20T03:51:10;13.20;;;6.32;;
73136;SDS011;62977;45.636;11.750;2022-11-20T03:53:40;11.65;;;5.82;;
73136;SDS011;62977;45.636;11.750;2022-11-20T03:56:07;11.90;;;5.80;;
73136;SDS011;62977;45.636;11.750;2022-11-20T03:58:34;12.73;;;6.13;;
73136;SDS011;62977;45.636;11.750;2022-11-20T04:01:07;16.65;;;5.93;;
73136;SDS011;62977;45.636;11.750;2022-11-20T04:03:35;12.63;;;6.07;;
73136;SDS011;62977;45.636;11.750;2022-11-20T04:06:02;13.63;;;6.03;;
73136;SDS011;62977;45.636;11.750;2022-11-20T04:08:30;12.47;;;5.67;;
73136;SDS011;62977;45.636;11.750;2022-11-20T04:10:56;11.65;;;5.57;;
73136;SDS011;62977;45.636;11.750;2022-11-20T04:13:21;11.55;;;5.50;;
73136;SDS011;62977;45.636;11.750;2022-11-20T04:15:47;12.37;;;5.70;;
73136;SDS011;62977;45.636;11.750;2022-11-20T04:18:13;12.23;;;5.93;;
73136;SDS011;62977;45.636;11.750;2022-11-20T04:20:38;10.88;;;5.57;;
73136;SDS011;62977;45.636;11.750;2022-11-20T04:23:04;11.00;;;5.50;;
73136;SDS011;62977;45.636;11.750;2022-11-20T04:25:29;12.18;;;5.18;;
73136;SDS011;62977;45.636;11.750;2022-11-20T04:27:55;11.73;;;5.67;;
73136;SDS011;62977;45.636;11.750;2022-11-20T04:30:21;10.07;;;5.17;;
73136;SDS011;62977;45.636;11.750;2022-11-20T04:32:46;12.77;;;5.50;;
73136;SDS011;62977;45.636;11.750;2022-11-20T04:35:12;9.83;;;4.83;;
73136;SDS011;62977;45.636;11.750;2022-11-20T04:37:37;10.73;;;4.88;;
73136;SDS011;62977;45.636;11.750;2022-11-20T04:40:03;10.20;;;4.67;;
73136;SDS011;62977;45.636;11.750;2022-11-20T04:42:29;9.20;;;4.80;;
73136;SDS011;62977;45.636;11.750;2022-11-20T04:44:55;9.73;;;4.40;;
73136;SDS011;62977;45.636;11.750;2022-11-20T04:47:21;9.43;;;4.47;;
73136;SDS011;62977;45.636;11.750;2022-11-20T04:49:47;10.40;;;4.38;;
73136;SDS011;62977;45.636;11.750;2022-11-20T04:52:13;9.07;;;4.13;;
73136;SDS011;62977;45.636;11.750;2022-11-20T04:54:38;9.77;;;4.38;;
73136;SDS011;62977;45.636;11.750;2022-11-20T04:57:04;9.37;;;4.47;;
73136;SDS011;62977;45.636;11.750;2022-11-20T04:59:30;11.52;;;4.72;;
73136;SDS011;62977;45.636;11.750;2022-11-20T05:01:55;10.83;;;4.73;;
73136;SDS011;62977;45.636;11.750;2022-11-20T05:04:21;8.38;;;4.68;;
73136;SDS011;62977;45.636;11.750;2022-11-20T05:06:47;10.57;;;4.40;;
73136;SDS011;62977;45.636;11.750;2022-11-20T05:09:13;9.60;;;4.65;;
73136;SDS011;62977;45.636;11.750;2022-11-20T05:11:38;9.27;;;4.97;;
73136;SDS011;62977;45.636;11.750;2022-11-20T05:14:04;9.85;;;4.38;;
73136;SDS011;62977;45.636;11.750;2022-11-20T05:16:29;8.03;;;4.50;;
73136;SDS011;62977;45.636;11.750;2022-11-20T05:18:55;10.98;;;5.05;;
73136;SDS011;62977;45.636;11.750;2022-11-20T05:21:21;10.73;;;4.67;;
73136;SDS011;62977;45.636;11.750;2022-11-20T05:23:47;12.27;;;4.60;;
73136;SDS011;62977;45.636;11.750;2022-11-20T05:26:14;10.00;;;4.65;;
73136;SDS011;62977;45.636;11.750;2022-11-20T05:28:44;9.23;;;4.70;;
73136;SDS011;62977;45.636;11.750;2022-11-20T05:31:13;10.20;;;4.60;;
73136;SDS011;62977;45.636;11.750;2022-11-20T05:33:43;9.52;;;4.18;;
73136;SDS011;62977;45.636;11.750;2022-11-20T05:36:10;10.27;;;4.32;;
73136;SDS011;62977;45.636;11.750;2022-11-20T05:38:37;10.23;;;4.70;;
73136;SDS011;62977;45.636;11.750;2022-11-20T05:41:07;11.17;;;4.93;;
73136;SDS011;62977;45.636;11.750;2022-11-20T05:43:38;10.45;;;4.75;;
73136;SDS011;62977;45.636;11.750;2022-11-20T05:46:05;9.43;;;4.63;;
73136;SDS011;62977;45.636;11.750;2022-11-20T05:48:33;10.43;;;4.95;;
73136;SDS011;62977;45.636;11.750;2022-11-20T05:51:00;8.13;;;4.47;;
73136;SDS011;62977;45.636;11.750;2022-11-20T05:53:27;11.68;;;4.45;;
73136;SDS011;62977;45.636;11.750;2022-11-20T05:55:57;10.27;;;4.57;;
73136;SDS011;62977;45.636;11.750;2022-11-20T05:58:26;9.48;;;4.50;;
73136;SDS011;62977;45.636;11.750;2022-11-20T06:00:53;11.70;;;5.32;;
73136;SDS011;62977;45.636;11.750;2022-11-20T06:03:18;13.70;;;5.30;;
73136;SDS011;62977;45.636;11.750;2022-11-20T06:05:44;12.13;;;6.03;;
73136;SDS011;62977;45.636;11.750;2022-11-20T06:08:10;12.83;;;5.40;;
73136;SDS011;62977;45.636;11.750;2022-11-20T06:10:36;11.68;;;4.82;;
73136;SDS011;62977;45.636;11.750;2022-11-20T06:13:01;12.40;;;4.77;;
73136;SDS011;62977;45.636;11.750;2022-11-20T06:15:27;12.68;;;4.85;;
73136;SDS011;62977;45.636;11.750;2022-11-20T06:17:53;15.00;;;4.87;;
73136;SDS011;62977;45.636;11.750;2022-11-20T06:20:20;11.02;;;4.47;;
73136;SDS011;62977;45.636;11.750;2022-11-20T06:22:46;11.95;;;4.75;;
73136;SDS011;62977;45.636;11.750;2022-11-20T06:25:11;11.93;;;4.97;;
73136;SDS011;62977;45.636;11.750;2022-11-20T06:27:37;11.13;;;4.38;;
73136;SDS011;62977;45.636;11.750;2022-11-20T06:30:03;12.10;;;4.33;;
73136;SDS011;62977;45.636;11.750;2022-11-20T06:32:29;10.88;;;4.57;;
73136;SDS011;62977;45.636;11.750;2022-11-20T06:34:55;9.38;;;4.32;;
73136;SDS011;62977;45.636;11.750;2022-11-20T06:37:21;9.40;;;4.30;;
73136;SDS011;62977;45.636;11.750;2022-11-20T06:39:46;10.43;;;4.30;;
73136;SDS011;62977;45.636;11.750;2022-11-20T06:42:12;10.43;;;4.20;;
73136;SDS011;62977;45.636;11.750;2022-11-20T06:44:38;8.83;;;4.30;;
73136;SDS011;62977;45.636;11.750;2022-11-20T06:47:03;10.18;;;4.25;;
73136;SDS011;62977;45.636;11.750;2022-11-20T06:49:29;9.43;;;3.93;;
73136;SDS011;62977;45.636;11.750;2022-11-20T06:51:55;11.30;;;5.15;;
73136;SDS011;62977;45.636;11.750;2022-11-20T06:54:20;11.90;;;4.93;;
73136;SDS011;62977;45.636;11.750;2022-11-20T06:56:49;9.90;;;4.53;;
73136;SDS011;62977;45.636;11.750;2022-11-20T06:59:14;10.27;;;4.97;;
73136;SDS011;62977;45.636;11.750;2022-11-20T07:01:40;12.00;;;4.63;;
73136;SDS011;62977;45.636;11.750;2022-11-20T07:04:06;13.43;;;5.25;;
73136;SDS011;62977;45.636;11.750;2022-11-20T07:06:31;11.83;;;5.63;;
73136;SDS011;62977;45.636;11.750;2022-11-20T07:08:57;15.60;;;6.23;;
73136;SDS011;62977;45.636;11.750;2022-11-20T07:11:23;11.70;;;5.57;;
73136;SDS011;62977;45.636;11.750;2022-11-20T07:13:49;15.85;;;6.03;;
73136;SDS011;62977;45.636;11.750;2022-11-20T07:16:15;8.93;;;4.30;;
73136;SDS011;62977;45.636;11.750;2022-11-20T07:18:40;9.90;;;4.70;;
73136;SDS011;62977;45.636;11.750;2022-11-20T07:21:08;12.83;;;5.60;;
73136;SDS011;62977;45.636;11.750;2022-11-20T07:23:34;11.73;;;5.57;;
73136;SDS011;62977;45.636;11.750;2022-11-20T07:26:04;8.95;;;4.57;;
73136;SDS011;62977;45.636;11.750;2022-11-20T07:28:31;9.75;;;4.80;;
73136;SDS011;62977;45.636;11.750;2022-11-20T07:30:56;9.13;;;4.57;;
73136;SDS011;62977;45.636;11.750;2022-11-20T07:33:22;10.25;;;4.70;;
73136;SDS011;62977;45.636;11.750;2022-11-20T07:35:48;11.15;;;4.50;;
73136;SDS011;62977;45.636;11.750;2022-11-20T07:38:14;11.57;;;5.27;;
73136;SDS011;62977;45.636;11.750;2022-11-20T07:40:40;8.98;;;5.03;;
73136;SDS011;62977;45.636;11.750;2022-11-20T07:43:05;10.73;;;4.67;;
73136;SDS011;62977;45.636;11.750;2022-11-20T07:45:31;9.27;;;4.60;;
73136;SDS011;62977;45.636;11.750;2022-11-20T07:47:57;9.43;;;4.83;;
73136;SDS011;62977;45.636;11.750;2022-11-20T07:50:22;9.15;;;4.47;;
73136;SDS011;62977;45.636;11.750;2022-11-20T07:52:48;11.27;;;4.37;;
73136;SDS011;62977;45.636;11.750;2022-11-20T07:55:14;8.55;;;4.47;;
73136;SDS011;62977;45.636;11.750;2022-11-20T07:57:40;11.35;;;5.40;;
73136;SDS011;62977;45.636;11.750;2022-11-20T08:00:06;9.20;;;4.30;;
73136;SDS011;62977;45.636;11.750;2022-11-20T08:02:36;9.55;;;5.15;;
73136;SDS011;62977;45.636;11.750;2022-11-20T08:05:04;10.40;;;5.47;;
73136;SDS011;62977;45.636;11.750;2022-11-20T08:07:34;11.47;;;5.20;;
73136;SDS011;62977;45.636;11.750;2022-11-20T08:10:03;11.10;;;4.93;;
73136;SDS011;62977;45.636;11.750;2022-11-20T08:12:30;10.10;;;5.07;;
73136;SDS011;62977;45.636;11.750;2022-11-20T08:15:14;9.13;;;4.38;;
73136;SDS011;62977;45.636;11.750;2022-11-20T08:17:40;10.17;;;4.70;;
73136;SDS011;62977;45.636;11.750;2022-11-20T08:20:05;8.98;;;4.65;;
73136;SDS011;62977;45.636;11.750;2022-11-20T08:22:31;13.50;;;4.65;;
73136;SDS011;62977;45.636;11.750;2022-11-20T08:24:57;9.47;;;5.40;;
73136;SDS011;62977;45.636;11.750;2022-11-20T08:27:23;8.98;;;5.00;;
73136;SDS011;62977;45.636;11.750;2022-11-20T08:29:48;10.57;;;5.30;;
73136;SDS011;62977;45.636;11.750;2022-11-20T08:32:14;10.93;;;4.57;;
73136;SDS011;62977;45.636;11.750;2022-11-20T08:34:40;10.67;;;4.93;;
73136;SDS011;62977;45.636;11.750;2022-11-20T08:37:05;12.25;;;5.30;;
73136;SDS011;62977;45.636;11.750;2022-11-20T08:39:31;10.03;;;5.30;;
73136;SDS011;62977;45.636;11.750;2022-11-20T08:41:57;10.67;;;5.83;;
73136;SDS011;62977;45.636;11.750;2022-11-20T08:44:22;14.43;;;6.18;;
73136;SDS011;62977;45.636;11.750;2022-11-20T08:46:48;13.30;;;6.10;;
73136;SDS011;62977;45.636;11.750;2022-11-20T08:49:14;11.05;;;5.25;;
73136;SDS011;62977;45.636;11.750;2022-11-20T08:51:40;9.80;;;4.43;;
73136;SDS011;62977;45.636;11.750;2022-11-20T08:54:06;9.77;;;4.27;;
73136;SDS011;62977;45.636;11.750;2022-11-20T08:56:32;8.63;;;3.78;;
73136;SDS011;62977;45.636;11.750;2022-11-20T08:58:58;8.30;;;3.47;;
73136;SDS011;62977;45.636;11.750;2022-11-20T09:01:27;8.10;;;3.13;;
73136;SDS011;62977;45.636;11.750;2022-11-20T09:03:56;5.83;;;2.53;;
73136;SDS011;62977;45.636;11.750;2022-11-20T09:06:22;7.15;;;3.40;;
73136;SDS011;62977;45.636;11.750;2022-11-20T09:08:51;6.75;;;3.10;;
73136;SDS011;62977;45.636;11.750;2022-11-20T09:11:20;6.68;;;3.00;;
73136;SDS011;62977;45.636;11.750;2022-11-20T09:13:46;8.17;;;4.00;;
73136;SDS011;62977;45.636;11.750;2022-11-20T09:16:11;8.48;;;3.90;;
73136;SDS011;62977;45.636;11.750;2022-11-20T09:18:37;8.33;;;4.30;;
73136;SDS011;62977;45.636;11.750;2022-11-20T09:21:08;8.75;;;3.70;;
73136;SDS011;62977;45.636;11.750;2022-11-20T09:23:35;6.50;;;3.30;;
73136;SDS011;62977;45.636;11.750;2022-11-20T09:26:06;7.10;;;3.40;;
73136;SDS011;62977;45.636;11.750;2022-11-20T09:28:36;10.38;;;3.78;;
73136;SDS011;62977;45.636;11.750;2022-11-20T09:31:08;11.67;;;4.03;;
73136;SDS011;62977;45.636;11.750;2022-11-20T09:33:44;8.35;;;4.05;;
73136;SDS011;62977;45.636;11.750;2022-11-20T09:36:10;7.53;;;3.28;;
73136;SDS011;62977;45.636;11.750;2022-11-20T09:38:35;6.47;;;3.13;;
73136;SDS011;62977;45.636;11.750;2022-11-20T09:41:05;6.03;;;2.77;;
73136;SDS011;62977;45.636;11.750;2022-11-20T09:43:46;6.07;;;2.72;;
73136;SDS011;62977;45.636;11.750;2022-11-20T09:46:29;6.85;;;2.63;;
73136;SDS011;62977;45.636;11.750;2022-11-20T09:53:19;8.35;;;3.40;;
73136;SDS011;62977;45.636;11.750;2022-11-20T09:55:30;8.57;;;2.10;;
73136;SDS011;62977;45.636;11.750;2022-11-20T09:57:57;5.45;;;1.90;;
73136;SDS011;62977;45.636;11.750;2022-11-20T10:00:24;5.50;;;2.20;;
73136;SDS011;62977;45.636;11.750;2022-11-20T10:05:25;6.72;;;2.38;;
73136;SDS011;62977;45.636;11.750;2022-11-20T10:08:19;7.77;;;2.50;;
73136;SDS011;62977;45.636;11.750;2022-11-20T10:10:52;7.90;;;3.10;;
73136;SDS011;62977;45.636;11.750;2022-11-20T10:21:37;6.07;;;2.10;;
73136;SDS011;62977;45.636;11.750;2022-11-20T10:30:00;8.23;;;2.50;;
73136;SDS011;62977;45.636;11.750;2022-11-20T10:32:38;6.32;;;2.58;;
73136;SDS011;62977;45.636;11.750;2022-11-20T10:37:40;10.48;;;3.83;;
73136;SDS011;62977;45.636;11.750;2022-11-20T10:45:48;6.53;;;2.53;;
73136;SDS011;62977;45.636;11.750;2022-11-20T10:48:16;5.03;;;2.17;;
73136;SDS011;62977;45.636;11.750;2022-11-20T10:50:57;5.32;;;1.90;;
73136;SDS011;62977;45.636;11.750;2022-11-20T10:56:41;5.80;;;2.22;;
73136;SDS011;62977;45.636;11.750;2022-11-20T11:02:14;9.03;;;3.47;;
73136;SDS011;62977;45.636;11.750;2022-11-20T11:04:51;13.98;;;3.90;;
73136;SDS011;62977;45.636;11.750;2022-11-20T11:07:29;9.30;;;2.53;;
73136;SDS011;62977;45.636;11.750;2022-11-20T11:09:58;9.10;;;2.30;;
73136;SDS011;62977;45.636;11.750;2022-11-20T11:12:25;6.57;;;2.00;;
73136;SDS011;62977;45.636;11.750;2022-11-20T11:14:53;6.35;;;2.63;;
73136;SDS011;62977;45.636;11.750;2022-11-20T11:19:56;5.63;;;2.00;;
73136;SDS011;62977;45.636;11.750;2022-11-20T11:22:30;6.82;;;2.55;;
73136;SDS011;62977;45.636;11.750;2022-11-20T11:24:58;6.57;;;2.30;;
73136;SDS011;62977;45.636;11.750;2022-11-20T11:27:24;8.73;;;3.28;;
73136;SDS011;62977;45.636;11.750;2022-11-20T11:29:50;6.00;;;2.00;;
73136;SDS011;62977;45.636;11.750;2022-11-20T11:32:28;5.57;;;1.67;;
73136;SDS011;62977;45.636;11.750;2022-11-20T11:35:01;4.00;;;1.40;;
73136;SDS011;62977;45.636;11.750;2022-11-20T11:37:32;7.85;;;1.70;;
73136;SDS011;62977;45.636;11.750;2022-11-20T11:40:03;4.72;;;1.60;;
73136;SDS011;62977;45.636;11.750;2022-11-20T11:42:30;5.35;;;2.15;;
73136;SDS011;62977;45.636;11.750;2022-11-20T11:44:57;4.57;;;1.27;;
73136;SDS011;62977;45.636;11.750;2022-11-20T11:48:03;3.05;;;1.10;;
73136;SDS011;62977;45.636;11.750;2022-11-20T11:50:24;3.65;;;0.82;;
73136;SDS011;62977;45.636;11.750;2022-11-20T11:55:52;3.22;;;0.90;;
73136;SDS011;62977;45.636;11.750;2022-11-20T11:58:44;3.27;;;1.07;;
73136;SDS011;62977;45.636;11.750;2022-11-20T12:07:01;5.80;;;1.90;;
73136;SDS011;62977;45.636;11.750;2022-11-20T12:09:37;4.88;;;1.50;;
73136;SDS011;62977;45.636;11.750;2022-11-20T12:12:09;4.70;;;1.60;;
73136;SDS011;62977;45.636;11.750;2022-11-20T12:14:46;6.82;;;1.98;;
73136;SDS011;62977;45.636;11.750;2022-11-20T12:17:15;4.80;;;1.60;;
73136;SDS011;62977;45.636;11.750;2022-11-20T12:19:41;3.72;;;1.33;;
73136;SDS011;62977;45.636;11.750;2022-11-20T12:27:54;4.97;;;1.92;;
73136;SDS011;62977;45.636;11.750;2022-11-20T12:30:55;4.97;;;1.80;;
73136;SDS011;62977;45.636;11.750;2022-11-20T12:50:19;8.80;;;3.88;;
73136;SDS011;62977;45.636;11.750;2022-11-20T13:04:07;6.10;;;2.13;;
73136;SDS011;62977;45.636;11.750;2022-11-20T13:06:43;7.73;;;1.97;;
73136;SDS011;62977;45.636;11.750;2022-11-20T13:09:11;5.75;;;1.70;;
73136;SDS011;62977;45.636;11.750;2022-11-20T13:11:44;5.85;;;1.70;;
73136;SDS011;62977;45.636;11.750;2022-11-20T13:14:41;5.00;;;1.80;;
73136;SDS011;62977;45.636;11.750;2022-11-20T13:19:52;4.73;;;1.60;;
73136;SDS011;62977;45.636;11.750;2022-11-20T13:22:26;5.35;;;1.70;;
73136;SDS011;62977;45.636;11.750;2022-11-20T13:25:21;3.22;;;1.67;;
73136;SDS011;62977;45.636;11.750;2022-11-20T13:27:47;5.22;;;1.70;;
73136;SDS011;62977;45.636;11.750;2022-11-20T13:30:15;4.50;;;1.70;;
73136;SDS011;62977;45.636;11.750;2022-11-20T13:35:27;4.20;;;1.80;;
73136;SDS011;62977;45.636;11.750;2022-11-20T13:40:38;5.78;;;2.08;;
73136;SDS011;62977;45.636;11.750;2022-11-20T13:43:48;5.82;;;1.90;;
73136;SDS011;62977;45.636;11.750;2022-11-20T13:46:14;5.50;;;2.00;;
73136;SDS011;62977;45.636;11.750;2022-11-20T13:48:44;5.00;;;1.70;;
73136;SDS011;62977;45.636;11.750;2022-11-20T13:59:36;6.20;;;2.20;;
73136;SDS011;62977;45.636;11.750;2022-11-20T14:02:14;6.07;;;2.20;;
73136;SDS011;62977;45.636;11.750;2022-11-20T14:04:43;5.90;;;2.40;;
73136;SDS011;62977;45.636;11.750;2022-11-20T14:07:11;5.00;;;2.10;;
73136;SDS011;62977;45.636;11.750;2022-11-20T14:09:38;4.47;;;2.00;;
73136;SDS011;62977;45.636;11.750;2022-11-20T14:12:15;6.83;;;2.70;;
73136;SDS011;62977;45.636;11.750;2022-11-20T14:14:52;6.47;;;2.50;;
73136;SDS011;62977;45.636;11.750;2022-11-20T14:17:24;5.47;;;2.40;;
73136;SDS011;62977;45.636;11.750;2022-11-20T14:20:17;6.47;;;2.22;;
73136;SDS011;62977;45.636;11.750;2022-11-20T14:22:48;5.50;;;2.40;;
73136;SDS011;62977;45.636;11.750;2022-11-20T14:27:41;4.63;;;2.00;;
73136;SDS011;62977;45.636;11.750;2022-11-20T14:30:13;7.45;;;2.10;;
73136;SDS011;62977;45.636;11.750;2022-11-20T14:32:48;6.47;;;2.75;;
73136;SDS011;62977;45.636;11.750;2022-11-20T14:35:17;9.50;;;3.10;;
73136;SDS011;62977;45.636;11.750;2022-11-20T14:37:54;7.00;;;3.08;;
73136;SDS011;62977;45.636;11.750;2022-11-20T14:40:25;8.60;;;3.20;;
73136;SDS011;62977;45.636;11.750;2022-11-20T14:42:51;8.27;;;4.10;;
73136;SDS011;62977;45.636;11.750;2022-11-20T14:45:17;6.00;;;2.40;;
73136;SDS011;62977;45.636;11.750;2022-11-20T14:47:44;6.65;;;3.00;;
73136;SDS011;62977;45.636;11.750;2022-11-20T14:50:21;7.00;;;3.33;;
73136;SDS011;62977;45.636;11.750;2022-11-20T14:55:25;6.93;;;3.00;;
73136;SDS011;62977;45.636;11.750;2022-11-20T14:57:59;7.80;;;3.27;;
73136;SDS011;62977;45.636;11.750;2022-11-20T15:00:27;7.57;;;3.35;;
73136;SDS011;62977;45.636;11.750;2022-11-20T15:02:54;8.23;;;3.55;;
73136;SDS011;62977;45.636;11.750;2022-11-20T15:05:24;8.23;;;3.78;;
73136;SDS011;62977;45.636;11.750;2022-11-20T15:08:08;11.80;;;4.50;;
73136;SDS011;62977;45.636;11.750;2022-11-20T15:10:35;13.93;;;5.20;;
73136;SDS011;62977;45.636;11.750;2022-11-20T15:13:04;14.75;;;5.20;;
73136;SDS011;62977;45.636;11.750;2022-11-20T15:15:38;18.83;;;6.13;;
73136;SDS011;62977;45.636;11.750;2022-11-20T15:18:23;26.33;;;7.22;;
73136;SDS011;62977;45.636;11.750;2022-11-20T15:20:52;27.00;;;7.30;;
73136;SDS011;62977;45.636;11.750;2022-11-20T15:23:21;18.15;;;6.45;;
73136;SDS011;62977;45.636;11.750;2022-11-20T15:25:47;16.77;;;5.70;;
73136;SDS011;62977;45.636;11.750;2022-11-20T15:30:51;16.27;;;8.47;;
73136;SDS011;62977;45.636;11.750;2022-11-20T15:33:17;13.00;;;6.07;;
73136;SDS011;62977;45.636;11.750;2022-11-20T15:35:43;11.15;;;5.15;;
73136;SDS011;62977;45.636;11.750;2022-11-20T15:38:09;10.73;;;5.18;;
73136;SDS011;62977;45.636;11.750;2022-11-20T15:40:35;10.83;;;4.67;;
73136;SDS011;62977;45.636;11.750;2022-11-20T15:43:01;9.35;;;4.13;;
73136;SDS011;62977;45.636;11.750;2022-11-20T15:45:32;10.13;;;4.43;;
73136;SDS011;62977;45.636;11.750;2022-11-20T15:47:58;9.67;;;4.33;;
73136;SDS011;62977;45.636;11.750;2022-11-20T15:50:29;11.27;;;4.50;;
73136;SDS011;62977;45.636;11.750;2022-11-20T15:53:03;10.25;;;4.90;;
73136;SDS011;62977;45.636;11.750;2022-11-20T15:55:29;12.00;;;4.78;;
73136;SDS011;62977;45.636;11.750;2022-11-20T15:57:55;10.30;;;4.57;;
73136;SDS011;62977;45.636;11.750;2022-11-20T16:00:21;11.47;;;4.80;;
73136;SDS011;62977;45.636;11.750;2022-11-20T16:02:46;8.25;;;3.92;;
73136;SDS011;62977;45.636;11.750;2022-11-20T16:05:12;16.67;;;5.50;;
73136;SDS011;62977;45.636;11.750;2022-11-20T16:07:39;12.10;;;4.50;;
73136;SDS011;62977;45.636;11.750;2022-11-20T16:10:05;9.77;;;4.07;;
73136;SDS011;62977;45.636;11.750;2022-11-20T16:12:31;10.98;;;4.00;;
73136;SDS011;62977;45.636;11.750;2022-11-20T16:15:15;11.05;;;4.85;;
73136;SDS011;62977;45.636;11.750;2022-11-20T16:17:59;11.70;;;4.63;;
73136;SDS011;62977;45.636;11.750;2022-11-20T16:20:25;9.00;;;4.47;;
73136;SDS011;62977;45.636;11.750;2022-11-20T16:22:50;9.35;;;4.70;;